This is the latest recevied weather packets stored in our database for station/object YO4TNV-15. If no packets are shown the sender has not sent any weather packets the latest 10 day(s).
| Time | Temp. | Humidity | Pressure | Rain* | Wind** | Luminosity | Snow |
|---|---|---|---|---|---|---|---|
| 1777471631 | 13.33° C | 26% | 1008.1 hPa | - | - | - | - |
| 1777468930 | 13.89° C | 26% | 1007.9 hPa | - | - | - | - |
| 1777468030 | 14.44° C | 25% | 1008 hPa | - | - | - | - |
| 1777466230 | 14.44° C | 25% | 1008.1 hPa | - | - | - | - |
| 1777465329 | 14.44° C | 26% | 1008 hPa | - | - | - | - |
| 1777464429 | 15.56° C | 22% | 1008.1 hPa | - | - | - | - |
| 1777462629 | 15.56° C | 23% | 1008.2 hPa | - | - | - | - |
| 1777461729 | 15.56° C | 24% | 1008.1 hPa | - | - | - | - |
| 1777460829 | 16.11° C | 23% | 1008.2 hPa | - | - | - | - |
| 1777459028 | 16.11° C | 23% | 1008.4 hPa | - | - | - | - |
| 1777457228 | 15° C | 23% | 1008.4 hPa | - | - | - | - |
| 1777455428 | 16.67° C | 20% | 1008.4 hPa | - | - | - | - |
| 1777454527 | 15° C | 22% | 1008.6 hPa | - | - | - | - |
| 1777453627 | 14.44° C | 23% | 1008.6 hPa | - | - | - | - |
| 1777452727 | 15° C | 24% | 1008.5 hPa | - | - | - | - |
| 1777451827 | 14.44° C | 24% | 1008.5 hPa | - | - | - | - |
| 1777450927 | 13.33° C | 24% | 1008.5 hPa | - | - | - | - |
| 1777450027 | 13.33° C | 25% | 1008.6 hPa | - | - | - | - |
| 1777449126 | 14.44° C | 25% | 1008.5 hPa | - | - | - | - |
| 1777448226 | 13.33° C | 25% | 1008.5 hPa | - | - | - | - |
| 1777447326 | 13.33° C | 25% | 1008.4 hPa | - | - | - | - |
| 1777446426 | 14.44° C | 24% | 1008.3 hPa | - | - | - | - |
| 1777445526 | 13.89° C | 27% | 1008.3 hPa | - | - | - | - |
| 1777444626 | 14.44° C | 26% | 1008.3 hPa | - | - | - | - |
| 1777443725 | 14.44° C | 25% | 1008.2 hPa | - | - | - | - |
* Rain since midnight (hover to see other rain measurements)
** Current wind speed in m/s (hover to see current wind gust speed)